Time;durP1;ratioP1;P1;durP2;ratioP2;P2;SDS_P1;SDS_P2;PMS_P1;PMS_P2;Temp;Humidity;BMP_temperature;BMP_pressure;BME280_temperature;BME280_humidity;BME280_pressure;Samples;Min_cycle;Max_cycle;Signal;HPM_P1;HPM_P2
2023/04/05 00:00:10;;;;;;;19.83;10.40;;;;;;;;;;4896191;28;20159;-68
2023/04/05 00:02:35;;;;;;;14.43;9.20;;;;;;;;;;4894210;28;20043;-67
2023/04/05 00:05:02;;;;;;;18.98;9.98;;;;;;;;;;4896266;28;20410;-68
2023/04/05 00:07:27;;;;;;;13.23;9.27;;;;;;;;;;4909408;28;20292;-68
2023/04/05 00:09:52;;;;;;;17.00;9.23;;;;;;;;;;4911890;28;20126;-68
2023/04/05 00:12:18;;;;;;;18.70;10.40;;;;;;;;;;4896786;28;20075;-68
2023/04/05 00:14:43;;;;;;;17.00;9.90;;;;;;;;;;4896539;28;20074;-69
2023/04/05 00:17:09;;;;;;;17.88;10.10;;;;;;;;;;4895505;28;20158;-68
2023/04/05 00:19:36;;;;;;;16.92;10.13;;;;;;;;;;4897963;28;20039;-69
2023/04/05 00:22:02;;;;;;;17.30;10.20;;;;;;;;;;4898520;28;20039;-68
2023/04/05 00:24:32;;;;;;;16.23;10.13;;;;;;;;;;4896993;28;20054;-68
2023/04/05 00:26:57;;;;;;;17.92;9.68;;;;;;;;;;4895402;28;20496;-68
2023/04/05 00:29:23;;;;;;;19.52;10.25;;;;;;;;;;4896236;28;20650;-68
2023/04/05 00:31:48;;;;;;;16.20;10.07;;;;;;;;;;4894525;28;20050;-68
2023/04/05 00:34:15;;;;;;;15.80;10.15;;;;;;;;;;4891863;28;20043;-68
2023/04/05 00:36:43;;;;;;;18.98;10.80;;;;;;;;;;4891758;28;20047;-68
2023/04/05 00:39:08;;;;;;;18.92;10.80;;;;;;;;;;4896809;28;20539;-70
2023/04/05 00:41:35;;;;;;;18.13;11.73;;;;;;;;;;4896066;28;20561;-68
2023/04/05 00:44:02;;;;;;;18.63;12.18;;;;;;;;;;4894011;28;20506;-68
2023/04/05 00:46:35;;;;;;;19.50;11.80;;;;;;;;;;4894694;28;20203;-71
2023/04/05 00:49:00;;;;;;;23.27;12.57;;;;;;;;;;4892438;28;20047;-68
2023/04/05 00:51:26;;;;;;;20.98;12.43;;;;;;;;;;4897300;28;20054;-69
2023/04/05 00:53:51;;;;;;;21.07;13.53;;;;;;;;;;4891485;28;20457;-69
2023/04/05 00:56:17;;;;;;;20.70;13.55;;;;;;;;;;4892633;28;20083;-68
2023/04/05 00:58:42;;;;;;;24.02;15.63;;;;;;;;;;4895893;28;20254;-70
2023/04/05 01:01:26;;;;;;;26.35;16.20;;;;;;;;;;4876011;28;20269;-69
2023/04/05 01:04:06;;;;;;;25.90;16.30;;;;;;;;;;4909008;28;20039;-69
2023/04/05 01:06:34;;;;;;;33.85;16.88;;;;;;;;;;4896191;28;20973;-68
2023/04/05 01:09:11;;;;;;;32.25;17.80;;;;;;;;;;4896521;28;20532;-68
2023/04/05 01:11:38;;;;;;;27.60;18.15;;;;;;;;;;4896748;28;20794;-70
2023/04/05 01:14:03;;;;;;;26.50;18.42;;;;;;;;;;4894224;28;20498;-69
2023/04/05 01:16:28;;;;;;;29.42;18.80;;;;;;;;;;4895600;28;20047;-69
2023/04/05 01:18:57;;;;;;;31.48;19.35;;;;;;;;;;4893979;28;20498;-73
2023/04/05 01:21:22;;;;;;;32.53;20.83;;;;;;;;;;4891416;28;20035;-72
2023/04/05 01:23:57;;;;;;;29.63;19.48;;;;;;;;;;4895729;28;20496;-74
2023/04/05 01:26:29;;;;;;;29.90;20.02;;;;;;;;;;4895773;28;20539;-72
2023/04/05 01:29:17;;;;;;;31.10;19.90;;;;;;;;;;4895108;28;20456;-71
2023/04/05 01:31:50;;;;;;;28.77;19.75;;;;;;;;;;4926077;28;20667;-69
2023/04/05 01:34:38;;;;;;;29.67;18.73;;;;;;;;;;4893890;28;20737;-69
2023/04/05 01:37:06;;;;;;;27.92;18.98;;;;;;;;;;4891859;28;20634;-70
2023/04/05 01:39:33;;;;;;;31.35;20.67;;;;;;;;;;4895648;28;20042;-70
2023/04/05 01:42:01;;;;;;;31.85;20.35;;;;;;;;;;4896515;28;20039;-69
2023/04/05 01:44:27;;;;;;;28.50;18.55;;;;;;;;;;4896093;28;20657;-69
2023/04/05 01:46:52;;;;;;;32.20;18.20;;;;;;;;;;4894531;28;20075;-68
2023/04/05 01:49:20;;;;;;;28.77;17.15;;;;;;;;;;4894643;28;20042;-68
2023/04/05 01:51:45;;;;;;;29.20;17.55;;;;;;;;;;4893847;28;20119;-69
2023/04/05 01:54:13;;;;;;;28.42;17.48;;;;;;;;;;4894202;28;20198;-68
2023/04/05 01:56:38;;;;;;;26.60;17.15;;;;;;;;;;4891512;28;20139;-69
2023/04/05 01:59:03;;;;;;;26.73;17.05;;;;;;;;;;4900231;28;20041;-69
2023/04/05 02:01:28;;;;;;;26.40;17.87;;;;;;;;;;4897162;28;20130;-69
2023/04/05 02:03:56;;;;;;;22.33;16.35;;;;;;;;;;4900663;28;20579;-68
2023/04/05 02:06:21;;;;;;;25.05;17.67;;;;;;;;;;4902704;28;20074;-69
2023/04/05 02:08:47;;;;;;;26.17;16.55;;;;;;;;;;4897369;28;20118;-70
2023/04/05 02:11:12;;;;;;;26.42;16.98;;;;;;;;;;4892920;28;20035;-68
2023/04/05 02:13:37;;;;;;;24.88;15.60;;;;;;;;;;4894876;28;20137;-69
2023/04/05 02:16:03;;;;;;;26.20;16.05;;;;;;;;;;4925997;28;20105;-70
2023/04/05 02:18:31;;;;;;;21.23;15.18;;;;;;;;;;4897914;28;20070;-68
2023/04/05 02:21:01;;;;;;;30.27;15.68;;;;;;;;;;4900153;28;20262;-70
2023/04/05 02:23:26;;;;;;;25.00;15.90;;;;;;;;;;4899300;28;20603;-68
2023/04/05 02:25:52;;;;;;;21.17;15.32;;;;;;;;;;4893773;28;20046;-69
2023/04/05 02:28:17;;;;;;;25.05;15.48;;;;;;;;;;4900256;28;20210;-69
2023/04/05 02:30:42;;;;;;;26.63;15.65;;;;;;;;;;4917904;28;20285;-69
2023/04/05 02:33:09;;;;;;;23.00;15.68;;;;;;;;;;4915584;28;20043;-69
2023/04/05 02:35:35;;;;;;;23.92;15.00;;;;;;;;;;4917992;28;20124;-69
2023/04/05 02:38:00;;;;;;;24.17;16.15;;;;;;;;;;4920208;28;20040;-69
2023/04/05 02:40:26;;;;;;;23.05;14.95;;;;;;;;;;4916976;28;20035;-69
2023/04/05 02:42:51;;;;;;;27.38;15.98;;;;;;;;;;4917624;28;20388;-69
2023/04/05 02:45:16;;;;;;;22.52;14.60;;;;;;;;;;4918268;28;20480;-69
2023/04/05 02:47:42;;;;;;;26.65;14.88;;;;;;;;;;4918897;28;20039;-69
2023/04/05 02:50:07;;;;;;;22.42;15.45;;;;;;;;;;4918323;28;20081;-69
2023/04/05 02:52:36;;;;;;;21.63;15.50;;;;;;;;;;4915332;28;20446;-69
2023/04/05 02:55:02;;;;;;;23.23;15.13;;;;;;;;;;4911780;28;20078;-68
2023/04/05 02:57:27;;;;;;;27.30;15.68;;;;;;;;;;4918600;28;20480;-68
2023/04/05 02:59:55;;;;;;;26.08;16.58;;;;;;;;;;4919109;28;20049;-69
2023/04/05 03:02:20;;;;;;;24.67;15.77;;;;;;;;;;4918955;28;20058;-69
2023/04/05 03:04:51;;;;;;;24.33;16.02;;;;;;;;;;4919015;28;20536;-69
2023/04/05 03:07:17;;;;;;;28.05;17.05;;;;;;;;;;4913514;28;20050;-69
2023/04/05 03:09:46;;;;;;;24.20;16.35;;;;;;;;;;4901532;28;20126;-69
2023/04/05 03:12:11;;;;;;;24.95;16.02;;;;;;;;;;4914990;28;20373;-69
2023/04/05 03:14:38;;;;;;;26.77;15.88;;;;;;;;;;4916818;28;20042;-69
2023/04/05 03:17:06;;;;;;;26.50;16.20;;;;;;;;;;4919911;28;20049;-69
2023/04/05 03:19:31;;;;;;;24.30;15.88;;;;;;;;;;4948463;28;20039;-69
2023/04/05 03:21:57;;;;;;;24.63;16.73;;;;;;;;;;4917884;28;20122;-69
2023/04/05 03:24:22;;;;;;;27.10;16.40;;;;;;;;;;4919691;28;20035;-69
2023/04/05 03:26:50;;;;;;;28.92;16.38;;;;;;;;;;4919901;28;20166;-69
2023/04/05 03:29:16;;;;;;;26.73;17.23;;;;;;;;;;4918030;28;20035;-69
2023/04/05 03:31:43;;;;;;;29.27;17.70;;;;;;;;;;4917061;28;20043;-69
2023/04/05 03:34:09;;;;;;;33.30;18.33;;;;;;;;;;4919947;28;20090;-72
2023/04/05 03:36:44;;;;;;;28.98;17.88;;;;;;;;;;4916567;28;20051;-72
2023/04/05 03:39:12;;;;;;;30.33;17.17;;;;;;;;;;4917680;28;20070;-73
2023/04/05 03:41:38;;;;;;;29.58;18.42;;;;;;;;;;4899429;28;20108;-73
2023/04/05 03:44:04;;;;;;;26.15;17.85;;;;;;;;;;4918913;28;20165;-73
2023/04/05 03:46:36;;;;;;;28.67;18.15;;;;;;;;;;4912999;28;20055;-74
2023/04/05 03:49:02;;;;;;;31.25;18.63;;;;;;;;;;4913533;28;20071;-73
2023/04/05 03:51:28;;;;;;;27.52;19.40;;;;;;;;;;4940107;28;20082;-73
2023/04/05 03:53:53;;;;;;;27.60;18.30;;;;;;;;;;4921363;28;20568;-73
2023/04/05 03:56:21;;;;;;;30.45;18.38;;;;;;;;;;4949412;28;20058;-73
2023/04/05 03:58:46;;;;;;;28.73;18.48;;;;;;;;;;4919495;28;20078;-73
2023/04/05 04:01:12;;;;;;;30.15;18.73;;;;;;;;;;4947777;28;20043;-73
2023/04/05 04:03:38;;;;;;;29.42;18.17;;;;;;;;;;4917897;28;20051;-73
2023/04/05 04:06:03;;;;;;;28.50;19.40;;;;;;;;;;4902143;28;20053;-72
2023/04/05 04:08:29;;;;;;;32.35;19.73;;;;;;;;;;4915238;28;20035;-72
2023/04/05 04:10:54;;;;;;;32.60;19.90;;;;;;;;;;4931143;28;20047;-72
2023/04/05 04:13:22;;;;;;;30.92;20.13;;;;;;;;;;4919163;28;20126;-72
2023/04/05 04:15:47;;;;;;;34.03;19.40;;;;;;;;;;4917662;28;20086;-71
2023/04/05 04:18:12;;;;;;;32.28;20.02;;;;;;;;;;4914657;28;20047;-72
2023/04/05 04:20:41;;;;;;;33.38;19.80;;;;;;;;;;4915241;28;20043;-72
2023/04/05 04:23:09;;;;;;;30.42;19.70;;;;;;;;;;4915805;28;20503;-73
2023/04/05 04:25:35;;;;;;;34.70;20.52;;;;;;;;;;4919871;28;20047;-73
2023/04/05 04:28:01;;;;;;;32.97;20.85;;;;;;;;;;4933658;28;20089;-72
2023/04/05 04:30:29;;;;;;;35.25;21.58;;;;;;;;;;4931458;28;20995;-73
2023/04/05 04:32:55;;;;;;;32.47;20.63;;;;;;;;;;4915729;28;20050;-73
2023/04/05 04:35:24;;;;;;;32.05;20.58;;;;;;;;;;4916767;28;20055;-73
2023/04/05 04:37:51;;;;;;;32.63;21.08;;;;;;;;;;4918449;28;20039;-72
2023/04/05 04:40:17;;;;;;;34.88;19.80;;;;;;;;;;4914241;28;20089;-71
2023/04/05 04:42:45;;;;;;;35.60;20.95;;;;;;;;;;4915759;28;20049;-73
2023/04/05 04:45:11;;;;;;;34.38;20.40;;;;;;;;;;4914509;28;20150;-70
2023/04/05 04:47:36;;;;;;;32.72;21.63;;;;;;;;;;4917188;28;20048;-72
2023/04/05 04:50:03;;;;;;;32.30;20.08;;;;;;;;;;4918795;28;20050;-74
2023/04/05 04:52:29;;;;;;;35.53;20.65;;;;;;;;;;4916582;28;20039;-74
2023/04/05 04:54:54;;;;;;;30.98;19.92;;;;;;;;;;4917042;28;20056;-72
2023/04/05 04:57:19;;;;;;;33.95;20.95;;;;;;;;;;4915762;28;20088;-73
2023/04/05 04:59:44;;;;;;;33.38;20.35;;;;;;;;;;4911563;28;20096;-72
2023/04/05 05:02:14;;;;;;;33.15;21.42;;;;;;;;;;4915828;28;20031;-73
2023/04/05 05:04:41;;;;;;;31.90;20.63;;;;;;;;;;4915571;28;20539;-73
2023/04/05 05:07:10;;;;;;;32.65;21.17;;;;;;;;;;4916840;28;20073;-72
2023/04/05 05:09:35;;;;;;;40.20;22.73;;;;;;;;;;4913528;28;20040;-72
2023/04/05 05:12:00;;;;;;;37.10;21.77;;;;;;;;;;4918751;28;20043;-71
2023/04/05 05:14:28;;;;;;;33.55;21.08;;;;;;;;;;4917519;28;20138;-72
2023/04/05 05:16:53;;;;;;;33.97;21.45;;;;;;;;;;4911517;28;20067;-73
2023/04/05 05:19:18;;;;;;;38.13;20.27;;;;;;;;;;4915702;28;20047;-72
2023/04/05 05:21:45;;;;;;;32.83;21.33;;;;;;;;;;4917635;28;21943;-72
2023/04/05 05:24:13;;;;;;;32.30;20.27;;;;;;;;;;4914394;28;20039;-71
2023/04/05 05:26:38;;;;;;;37.13;21.55;;;;;;;;;;4918072;28;20715;-71
2023/04/05 05:29:03;;;;;;;35.85;20.63;;;;;;;;;;4919434;28;20043;-72
2023/04/05 05:31:31;;;;;;;32.92;21.42;;;;;;;;;;4916734;28;20039;-73
2023/04/05 05:33:57;;;;;;;33.30;20.67;;;;;;;;;;4912599;28;20781;-71
2023/04/05 05:36:22;;;;;;;33.42;20.17;;;;;;;;;;4910725;28;20078;-71
2023/04/05 05:38:47;;;;;;;33.55;19.58;;;;;;;;;;4915078;28;20069;-73
2023/04/05 05:41:13;;;;;;;32.70;21.05;;;;;;;;;;4919049;28;20043;-72
2023/04/05 05:43:41;;;;;;;34.15;20.73;;;;;;;;;;4910312;28;20049;-72
2023/04/05 05:46:07;;;;;;;33.35;20.80;;;;;;;;;;4942080;28;20096;-72
2023/04/05 05:48:32;;;;;;;33.95;20.42;;;;;;;;;;4917085;28;20610;-72
2023/04/05 05:51:00;;;;;;;32.08;20.55;;;;;;;;;;4917687;28;20050;-73
2023/04/05 05:53:25;;;;;;;33.45;19.38;;;;;;;;;;4915468;28;20130;-71
2023/04/05 05:55:51;;;;;;;32.63;20.55;;;;;;;;;;4915045;28;20070;-74
2023/04/05 05:58:16;;;;;;;31.88;19.75;;;;;;;;;;4915489;28;20471;-70
2023/04/05 06:00:41;;;;;;;32.28;20.63;;;;;;;;;;4917657;28;20040;-73
2023/04/05 06:03:06;;;;;;;34.92;20.60;;;;;;;;;;4915525;28;20051;-74
2023/04/05 06:05:32;;;;;;;32.97;20.30;;;;;;;;;;4914859;28;20050;-73
2023/04/05 06:07:57;;;;;;;30.60;19.90;;;;;;;;;;4920426;28;20120;-72
2023/04/05 06:10:24;;;;;;;32.75;20.05;;;;;;;;;;4913978;28;20130;-73
2023/04/05 06:12:49;;;;;;;36.40;19.98;;;;;;;;;;4917625;28;21033;-72
2023/04/05 06:15:14;;;;;;;35.85;19.98;;;;;;;;;;4916466;28;20154;-71
2023/04/05 06:17:42;;;;;;;30.73;19.65;;;;;;;;;;4916837;28;20134;-68
2023/04/05 06:20:10;;;;;;;35.40;19.83;;;;;;;;;;4939656;28;20090;-69
2023/04/05 06:22:35;;;;;;;33.35;21.02;;;;;;;;;;4916615;28;20074;-71
2023/04/05 06:25:00;;;;;;;30.55;21.00;;;;;;;;;;4916191;28;20031;-69
2023/04/05 06:27:26;;;;;;;33.67;20.33;;;;;;;;;;4906652;28;20032;-67
2023/04/05 06:29:51;;;;;;;31.35;18.48;;;;;;;;;;4915805;28;20788;-68
2023/04/05 06:32:16;;;;;;;30.88;18.83;;;;;;;;;;4898763;28;20043;-68
2023/04/05 06:34:42;;;;;;;27.83;17.55;;;;;;;;;;4915414;28;20035;-68
2023/04/05 06:37:07;;;;;;;31.27;17.38;;;;;;;;;;4916130;28;20040;-68
2023/04/05 06:39:35;;;;;;;29.52;16.73;;;;;;;;;;4911750;28;20126;-68
2023/04/05 06:42:01;;;;;;;27.83;16.50;;;;;;;;;;4917751;28;20111;-68
2023/04/05 06:44:26;;;;;;;27.10;15.93;;;;;;;;;;4915930;28;20032;-68
2023/04/05 06:46:51;;;;;;;22.60;14.65;;;;;;;;;;4914554;28;20042;-69
2023/04/05 06:49:19;;;;;;;23.30;14.82;;;;;;;;;;4915518;28;20052;-68
2023/04/05 06:51:44;;;;;;;24.17;14.77;;;;;;;;;;4919321;28;20761;-68
2023/04/05 06:54:10;;;;;;;23.95;14.82;;;;;;;;;;4914920;28;20040;-69
2023/04/05 06:56:38;;;;;;;24.73;14.77;;;;;;;;;;4919762;28;20039;-67
2023/04/05 06:59:03;;;;;;;20.77;13.77;;;;;;;;;;4922146;28;20135;-69
2023/04/05 07:01:29;;;;;;;20.98;12.77;;;;;;;;;;4921478;28;20039;-68
2023/04/05 07:03:54;;;;;;;18.67;12.43;;;;;;;;;;4918830;28;20496;-67
2023/04/05 07:06:20;;;;;;;19.10;11.50;;;;;;;;;;4918579;28;20063;-72
2023/04/05 07:08:45;;;;;;;18.63;11.02;;;;;;;;;;4917402;28;20114;-71
2023/04/05 07:11:12;;;;;;;19.15;10.73;;;;;;;;;;4921821;28;20056;-73
2023/04/05 07:13:37;;;;;;;20.27;10.68;;;;;;;;;;4921380;28;20031;-72
2023/04/05 07:16:03;;;;;;;17.98;10.70;;;;;;;;;;4914647;28;20047;-73
2023/04/05 07:18:28;;;;;;;15.18;9.88;;;;;;;;;;4919029;28;20048;-73
2023/04/05 07:20:58;;;;;;;15.50;10.48;;;;;;;;;;4920730;28;20663;-73
2023/04/05 07:23:24;;;;;;;15.38;10.02;;;;;;;;;;4919164;28;20043;-72
2023/04/05 07:25:49;;;;;;;15.52;10.23;;;;;;;;;;4920470;28;20093;-73
2023/04/05 07:28:14;;;;;;;20.48;10.00;;;;;;;;;;4917561;28;20040;-71
2023/04/05 07:30:40;;;;;;;14.73;9.25;;;;;;;;;;4918122;28;20118;-74
2023/04/05 07:33:05;;;;;;;17.95;9.30;;;;;;;;;;4918194;28;20031;-71
2023/04/05 07:35:31;;;;;;;17.48;10.07;;;;;;;;;;4904176;28;20054;-73
2023/04/05 07:37:56;;;;;;;16.33;9.23;;;;;;;;;;4916911;28;20090;-72
2023/04/05 07:40:21;;;;;;;14.02;9.20;;;;;;;;;;4921680;28;20040;-73
2023/04/05 07:42:47;;;;;;;17.98;9.43;;;;;;;;;;4940715;28;20248;-73
2023/04/05 07:45:12;;;;;;;17.42;9.10;;;;;;;;;;4917915;28;20114;-73
2023/04/05 07:47:37;;;;;;;20.55;9.88;;;;;;;;;;4914860;28;20142;-72
2023/04/05 07:50:03;;;;;;;23.15;10.30;;;;;;;;;;4914003;28;20117;-74
2023/04/05 07:52:28;;;;;;;18.55;10.32;;;;;;;;;;4931404;28;20039;-70
2023/04/05 07:54:54;;;;;;;19.52;10.32;;;;;;;;;;4918338;28;20039;-73
2023/04/05 07:57:19;;;;;;;17.45;9.68;;;;;;;;;;4918633;28;20125;-71
2023/04/05 07:59:45;;;;;;;16.73;10.30;;;;;;;;;;4920065;28;20302;-74
2023/04/05 08:02:10;;;;;;;18.88;10.60;;;;;;;;;;4916194;28;20115;-73
2023/04/05 08:04:35;;;;;;;25.50;12.27;;;;;;;;;;4918504;28;20043;-73
2023/04/05 08:07:01;;;;;;;20.50;11.00;;;;;;;;;;4914602;28;20031;-73
2023/04/05 08:09:26;;;;;;;18.80;10.63;;;;;;;;;;4918174;28;20031;-74
2023/04/05 08:11:51;;;;;;;19.52;9.85;;;;;;;;;;4919808;28;20177;-73
2023/04/05 08:14:18;;;;;;;13.00;9.23;;;;;;;;;;4918734;28;20177;-73
2023/04/05 08:16:45;;;;;;;21.10;8.95;;;;;;;;;;4928599;28;20108;-72
2023/04/05 08:19:10;;;;;;;16.20;8.40;;;;;;;;;;4917818;28;20423;-74
2023/04/05 08:21:37;;;;;;;17.48;9.30;;;;;;;;;;4918033;28;20035;-72
2023/04/05 08:24:05;;;;;;;20.05;9.35;;;;;;;;;;4918350;28;20122;-72
2023/04/05 08:26:30;;;;;;;20.05;9.00;;;;;;;;;;4917613;28;20495;-73
2023/04/05 08:29:03;;;;;;;17.98;8.63;;;;;;;;;;4938438;28;20048;-74
2023/04/05 08:31:28;;;;;;;16.38;9.52;;;;;;;;;;4918041;28;20032;-73
2023/04/05 08:33:56;;;;;;;18.30;9.32;;;;;;;;;;4918054;28;20042;-73
2023/04/05 08:36:21;;;;;;;18.00;8.80;;;;;;;;;;4917809;28;21136;-73
2023/04/05 08:38:47;;;;;;;15.30;8.00;;;;;;;;;;4918525;28;20044;-73
2023/04/05 08:41:15;;;;;;;12.73;8.05;;;;;;;;;;4918742;28;20043;-70
2023/04/05 08:43:54;;;;;;;13.48;8.55;;;;;;;;;;4946721;28;20537;-74
2023/04/05 08:46:19;;;;;;;13.13;8.43;;;;;;;;;;4917285;28;20043;-74
2023/04/05 08:48:45;;;;;;;12.82;8.43;;;;;;;;;;4916434;28;20218;-72
2023/04/05 08:51:10;;;;;;;14.25;7.97;;;;;;;;;;4917916;28;20039;-68
2023/04/05 08:53:38;;;;;;;11.23;7.85;;;;;;;;;;4917142;28;20127;-68
2023/04/05 08:56:03;;;;;;;11.55;7.43;;;;;;;;;;4917773;28;20053;-66
2023/04/05 08:58:30;;;;;;;13.65;8.00;;;;;;;;;;4916097;28;20039;-68
2023/04/05 09:00:56;;;;;;;11.32;7.70;;;;;;;;;;4919393;28;22296;-67
2023/04/05 09:03:25;;;;;;;11.15;7.28;;;;;;;;;;4947978;28;20035;-69
2023/04/05 09:05:51;;;;;;;13.10;7.70;;;;;;;;;;4947190;28;20542;-68
2023/04/05 09:08:17;;;;;;;11.60;7.30;;;;;;;;;;4920820;28;20043;-68
2023/04/05 09:10:43;;;;;;;8.85;6.63;;;;;;;;;;4934483;28;20031;-68
2023/04/05 09:13:09;;;;;;;8.88;6.50;;;;;;;;;;4917124;28;20449;-68
2023/04/05 09:15:40;;;;;;;10.52;6.20;;;;;;;;;;4915419;28;20100;-66
2023/04/05 09:18:05;;;;;;;9.25;6.78;;;;;;;;;;4916816;28;20043;-68
2023/04/05 09:20:33;;;;;;;9.18;6.78;;;;;;;;;;4912609;28;20118;-68
2023/04/05 09:22:58;;;;;;;12.48;7.13;;;;;;;;;;4915446;28;20078;-67
2023/04/05 09:25:39;;;;;;;8.32;6.50;;;;;;;;;;4917086;28;20070;-67
2023/04/05 09:28:05;;;;;;;8.63;5.82;;;;;;;;;;4915967;28;20035;-69
2023/04/05 09:30:31;;;;;;;8.38;5.85;;;;;;;;;;4915773;28;21496;-67
2023/04/05 09:32:57;;;;;;;8.55;6.28;;;;;;;;;;4913225;28;20043;-69
2023/04/05 09:35:29;;;;;;;10.73;5.93;;;;;;;;;;4916834;28;20067;-70
2023/04/05 09:37:55;;;;;;;8.48;6.43;;;;;;;;;;4917674;28;22323;-67
2023/04/05 09:40:21;;;;;;;10.50;6.22;;;;;;;;;;4920003;28;20043;-68
2023/04/05 09:42:47;;;;;;;11.38;6.65;;;;;;;;;;4915284;28;20039;-65
2023/04/05 09:45:13;;;;;;;7.70;6.10;;;;;;;;;;4915798;28;20035;-67
2023/04/05 09:47:41;;;;;;;10.43;6.60;;;;;;;;;;4907753;28;22159;-67
2023/04/05 09:50:17;;;;;;;10.27;6.80;;;;;;;;;;4915687;28;21091;-70
2023/04/05 09:52:42;;;;;;;11.15;7.18;;;;;;;;;;4915249;28;20120;-69
2023/04/05 09:55:08;;;;;;;10.20;6.35;;;;;;;;;;4918354;28;20190;-69
2023/04/05 09:57:36;;;;;;;10.55;7.00;;;;;;;;;;4916868;28;20035;-69
2023/04/05 10:00:04;;;;;;;9.35;7.10;;;;;;;;;;4917417;28;20161;-68
2023/04/05 10:02:39;;;;;;;10.68;6.53;;;;;;;;;;4917066;28;22536;-66
2023/04/05 10:05:05;;;;;;;10.40;6.82;;;;;;;;;;4918120;28;20112;-68
2023/04/05 10:07:31;;;;;;;11.77;6.90;;;;;;;;;;4914268;28;20044;-69
2023/04/05 10:09:56;;;;;;;10.55;6.55;;;;;;;;;;4913110;28;20058;-68
2023/04/05 10:12:27;;;;;;;10.38;6.78;;;;;;;;;;4918147;28;20043;-68
2023/04/05 10:14:53;;;;;;;9.38;6.93;;;;;;;;;;4916231;28;20039;-70
2023/04/05 10:17:28;;;;;;;11.02;6.68;;;;;;;;;;4918770;28;20053;-70
2023/04/05 10:20:14;;;;;;;10.50;6.43;;;;;;;;;;4920307;28;20036;-69
2023/04/05 10:22:40;;;;;;;9.98;6.80;;;;;;;;;;4915521;28;20089;-68
2023/04/05 10:25:22;;;;;;;11.50;7.72;;;;;;;;;;4917767;28;20611;-68
2023/04/05 10:27:52;;;;;;;10.95;7.22;;;;;;;;;;4917614;28;20798;-67
2023/04/05 10:30:17;;;;;;;11.90;7.55;;;;;;;;;;4951801;28;20611;-68
2023/04/05 10:32:58;;;;;;;12.27;7.95;;;;;;;;;;4931149;28;20094;-68
2023/04/05 10:35:29;;;;;;;12.40;8.00;;;;;;;;;;4949500;28;20047;-69
2023/04/05 10:38:01;;;;;;;13.15;8.35;;;;;;;;;;4921189;28;20039;-68
2023/04/05 10:40:29;;;;;;;11.68;8.60;;;;;;;;;;4922013;28;20077;-67
2023/04/05 10:42:57;;;;;;;12.05;8.10;;;;;;;;;;4914373;28;20051;-68
2023/04/05 10:45:24;;;;;;;12.75;8.15;;;;;;;;;;4919102;28;20154;-70
2023/04/05 10:47:54;;;;;;;14.25;8.40;;;;;;;;;;4920216;28;20088;-70
2023/04/05 10:50:21;;;;;;;12.88;7.85;;;;;;;;;;4918995;28;20067;-69
2023/04/05 10:52:49;;;;;;;16.15;8.30;;;;;;;;;;4921074;28;20143;-69
2023/04/05 10:55:15;;;;;;;11.82;8.15;;;;;;;;;;4918106;28;20912;-69
2023/04/05 10:57:40;;;;;;;11.55;7.70;;;;;;;;;;4920250;28;20035;-72
2023/04/05 11:00:06;;;;;;;10.65;7.95;;;;;;;;;;4921573;28;20038;-71
2023/04/05 11:02:35;;;;;;;13.88;8.52;;;;;;;;;;4920442;28;20046;-70
2023/04/05 11:05:03;;;;;;;14.95;8.90;;;;;;;;;;4952324;28;20043;-68
2023/04/05 11:07:41;;;;;;;13.32;8.35;;;;;;;;;;4918709;28;20052;-68
2023/04/05 11:10:12;;;;;;;14.55;8.57;;;;;;;;;;4922605;28;20087;-70
2023/04/05 11:12:48;;;;;;;11.65;8.10;;;;;;;;;;4949772;28;20043;-72
2023/04/05 11:15:29;;;;;;;11.25;8.70;;;;;;;;;;4916919;28;20050;-71
2023/04/05 11:18:24;;;;;;;11.98;8.10;;;;;;;;;;4920362;28;20418;-71
2023/04/05 11:21:06;;;;;;;11.95;8.10;;;;;;;;;;4925190;28;20050;-72
2023/04/05 11:23:31;;;;;;;13.45;8.82;;;;;;;;;;4919786;28;20058;-71
2023/04/05 11:26:06;;;;;;;17.60;9.20;;;;;;;;;;4930991;28;20035;-72
2023/04/05 11:28:39;;;;;;;11.85;8.75;;;;;;;;;;4921262;28;20036;-71
2023/04/05 11:31:14;;;;;;;12.93;8.35;;;;;;;;;;4921910;28;20126;-71
2023/04/05 11:33:58;;;;;;;13.00;8.98;;;;;;;;;;4921640;28;20070;-71
2023/04/05 11:36:46;;;;;;;13.63;9.20;;;;;;;;;;4919633;28;20765;-70
2023/04/05 11:39:21;;;;;;;13.32;8.80;;;;;;;;;;4915835;28;20035;-72
2023/04/05 11:41:55;;;;;;;14.32;8.68;;;;;;;;;;4921541;28;20063;-71
2023/04/05 11:44:23;;;;;;;13.40;9.70;;;;;;;;;;4921341;28;20063;-68
2023/04/05 11:46:49;;;;;;;15.48;9.18;;;;;;;;;;4920651;28;20932;-72
2023/04/05 11:49:14;;;;;;;15.82;9.85;;;;;;;;;;4918993;28;20047;-72
2023/04/05 11:51:47;;;;;;;14.10;9.40;;;;;;;;;;4910287;28;20035;-70
2023/04/05 11:54:12;;;;;;;14.60;9.77;;;;;;;;;;4919367;28;20194;-69
2023/04/05 11:56:38;;;;;;;12.50;9.43;;;;;;;;;;4916518;28;20075;-68
2023/04/05 11:59:03;;;;;;;15.00;9.90;;;;;;;;;;4915513;28;20147;-70
2023/04/05 12:01:28;;;;;;;15.05;9.90;;;;;;;;;;4914584;28;20043;-71
2023/04/05 12:03:54;;;;;;;13.30;9.90;;;;;;;;;;4918981;28;20035;-69
2023/04/05 12:06:23;;;;;;;14.43;9.73;;;;;;;;;;4919532;28;20043;-69
2023/04/05 12:08:49;;;;;;;15.35;10.18;;;;;;;;;;4919573;28;20079;-69
2023/04/05 12:11:15;;;;;;;13.57;9.45;;;;;;;;;;4919238;28;20112;-69
2023/04/05 12:13:44;;;;;;;15.75;10.93;;;;;;;;;;4922012;28;20134;-70
2023/04/05 12:16:09;;;;;;;15.65;11.02;;;;;;;;;;4920248;28;20058;-70
2023/04/05 12:18:37;;;;;;;14.40;9.77;;;;;;;;;;4919703;28;22303;-70
2023/04/05 12:21:03;;;;;;;15.93;10.75;;;;;;;;;;4920742;28;20122;-70
2023/04/05 12:23:28;;;;;;;15.73;10.38;;;;;;;;;;4918403;28;20048;-67
2023/04/05 12:25:54;;;;;;;13.13;9.80;;;;;;;;;;4919559;28;20038;-68
2023/04/05 12:28:20;;;;;;;17.50;10.52;;;;;;;;;;4915210;28;20066;-68
2023/04/05 12:30:52;;;;;;;16.02;11.07;;;;;;;;;;4918265;28;20722;-68
2023/04/05 12:33:31;;;;;;;17.50;10.95;;;;;;;;;;4920483;28;20036;-68
2023/04/05 12:35:57;;;;;;;15.77;11.77;;;;;;;;;;4918527;28;20138;-68
2023/04/05 12:38:24;;;;;;;16.33;11.25;;;;;;;;;;4915718;28;20035;-68
2023/04/05 12:40:50;;;;;;;15.40;10.48;;;;;;;;;;4914242;28;20616;-68
2023/04/05 12:43:18;;;;;;;18.35;11.85;;;;;;;;;;4915613;28;20184;-67
2023/04/05 12:45:44;;;;;;;18.52;11.07;;;;;;;;;;4917141;28;20492;-69
2023/04/05 12:48:12;;;;;;;15.75;11.40;;;;;;;;;;4916525;28;20035;-69
2023/04/05 12:50:41;;;;;;;15.35;10.85;;;;;;;;;;4917440;28;20043;-67
2023/04/05 12:53:06;;;;;;;17.17;11.63;;;;;;;;;;4912529;28;20449;-68
2023/04/05 12:55:46;;;;;;;14.88;11.05;;;;;;;;;;4915074;28;20449;-68
2023/04/05 12:58:16;;;;;;;17.48;12.10;;;;;;;;;;4916169;28;20039;-70
2023/04/05 13:00:42;;;;;;;17.33;12.55;;;;;;;;;;4917017;28;20047;-68
2023/04/05 13:03:19;;;;;;;16.17;11.65;;;;;;;;;;4945756;28;20439;-66
2023/04/05 13:05:45;;;;;;;15.15;11.38;;;;;;;;;;4914878;28;20116;-68
2023/04/05 13:08:11;;;;;;;17.00;12.48;;;;;;;;;;4929438;28;20039;-68
2023/04/05 13:10:38;;;;;;;17.90;12.18;;;;;;;;;;4910887;28;20046;-67
2023/04/05 13:13:04;;;;;;;14.98;11.18;;;;;;;;;;4909903;28;20039;-68
2023/04/05 13:15:29;;;;;;;19.33;12.18;;;;;;;;;;4917142;28;20108;-68
2023/04/05 13:17:55;;;;;;;17.63;12.30;;;;;;;;;;4910860;28;20419;-68
2023/04/05 13:20:22;;;;;;;17.42;12.95;;;;;;;;;;4927898;28;20035;-67
2023/04/05 13:22:47;;;;;;;18.25;12.52;;;;;;;;;;4912759;28;20599;-67
2023/04/05 13:25:13;;;;;;;15.85;12.15;;;;;;;;;;4914952;28;20115;-68
2023/04/05 13:27:41;;;;;;;16.80;12.60;;;;;;;;;;4915595;28;20808;-69
2023/04/05 13:30:06;;;;;;;18.55;12.80;;;;;;;;;;4911060;28;20062;-67
2023/04/05 13:32:36;;;;;;;21.23;11.98;;;;;;;;;;4896515;28;20114;-69
2023/04/05 13:35:01;;;;;;;18.30;12.30;;;;;;;;;;4913102;28;20062;-69
2023/04/05 13:37:27;;;;;;;19.35;13.55;;;;;;;;;;4913449;28;20037;-74
2023/04/05 13:39:52;;;;;;;20.52;14.02;;;;;;;;;;4914914;28;20147;-73
2023/04/05 13:42:21;;;;;;;18.55;13.25;;;;;;;;;;4915636;28;20098;-74
2023/04/05 13:44:49;;;;;;;20.20;13.13;;;;;;;;;;4917463;28;20055;-73
2023/04/05 13:47:14;;;;;;;17.25;12.88;;;;;;;;;;4914368;28;21167;-73
2023/04/05 13:49:40;;;;;;;19.25;13.13;;;;;;;;;;4916071;28;20035;-74
2023/04/05 13:52:07;;;;;;;20.27;13.60;;;;;;;;;;4944187;28;20070;-74
2023/04/05 13:54:33;;;;;;;19.23;13.23;;;;;;;;;;4920099;28;20038;-73
2023/04/05 13:56:58;;;;;;;20.58;14.10;;;;;;;;;;4897502;28;20047;-74
2023/04/05 13:59:25;;;;;;;21.13;14.60;;;;;;;;;;4918631;28;20064;-72
2023/04/05 14:01:53;;;;;;;22.58;13.48;;;;;;;;;;4912723;28;20472;-73
2023/04/05 14:04:19;;;;;;;20.80;14.10;;;;;;;;;;4917739;28;20836;-74
2023/04/05 14:06:45;;;;;;;20.58;14.23;;;;;;;;;;4917382;28;20043;-75
2023/04/05 14:09:10;;;;;;;21.95;13.52;;;;;;;;;;4918445;28;20035;-74
2023/04/05 14:11:35;;;;;;;21.25;14.43;;;;;;;;;;4918822;28;20040;-74
2023/04/05 14:14:03;;;;;;;18.50;13.20;;;;;;;;;;4932795;28;20061;-74
2023/04/05 14:16:29;;;;;;;20.75;14.20;;;;;;;;;;4930503;28;20130;-74
2023/04/05 14:18:56;;;;;;;19.52;13.82;;;;;;;;;;4917979;28;20848;-71
2023/04/05 14:21:25;;;;;;;19.98;13.98;;;;;;;;;;4918085;28;20035;-74